createdAt,value
2018-05-27T00:00:40.932Z,22.22
2018-05-27T00:01:41.014Z,22.20
2018-05-27T00:02:40.984Z,22.20
2018-05-27T00:03:40.984Z,22.12
2018-05-27T00:04:41.261Z,22.07
2018-05-27T00:05:41.251Z,22.07
2018-05-27T00:06:41.071Z,22.12
2018-05-27T00:07:41.060Z,22.17
2018-05-27T00:08:41.152Z,22.06
2018-05-27T00:09:41.361Z,21.88
2018-05-27T00:10:41.471Z,21.96
2018-05-27T00:12:41.157Z,21.90
2018-05-27T00:13:41.201Z,21.88
2018-05-27T00:14:41.197Z,21.86
2018-05-27T00:15:41.227Z,21.91
2018-05-27T00:16:41.242Z,21.84
2018-05-27T00:17:41.252Z,21.90
2018-05-27T00:18:41.288Z,22.00
2018-05-27T00:19:41.297Z,21.88
2018-05-27T00:20:41.319Z,21.86
2018-05-27T00:21:41.330Z,21.99
2018-05-27T00:22:41.346Z,21.86
2018-05-27T00:23:42.031Z,21.79
2018-05-27T00:24:41.574Z,21.77
2018-05-27T00:25:41.403Z,21.75
2018-05-27T00:26:41.423Z,21.72
2018-05-27T00:27:41.446Z,21.69
2018-05-27T00:28:41.467Z,21.72
2018-05-27T00:29:41.518Z,21.71
2018-05-27T00:30:41.499Z,21.72
2018-05-27T00:31:41.527Z,21.71
2018-05-27T00:32:41.701Z,21.67
2018-05-27T00:33:41.720Z,21.68
2018-05-27T00:34:41.576Z,21.69
2018-05-27T00:35:41.948Z,21.75
2018-05-27T00:36:41.956Z,21.69
2018-05-27T00:37:41.634Z,21.65
2018-05-27T00:38:41.663Z,21.61
2018-05-27T00:39:41.672Z,21.71
2018-05-27T00:40:41.703Z,21.64
2018-05-27T00:42:41.743Z,21.67
2018-05-27T00:43:41.799Z,21.68
2018-05-27T00:44:41.846Z,21.58
2018-05-27T00:45:41.786Z,21.61
2018-05-27T00:46:41.806Z,21.53
2018-05-27T00:47:41.820Z,21.65
2018-05-27T00:48:41.839Z,21.64
2018-05-27T00:49:41.857Z,21.65
2018-05-27T00:50:41.881Z,21.69
2018-05-27T00:51:41.945Z,21.58
2018-05-27T00:52:41.924Z,21.61
2018-05-27T00:53:41.939Z,21.52
2018-05-27T00:54:41.951Z,21.53
2018-05-27T00:55:41.997Z,21.46
2018-05-27T00:56:41.992Z,21.50
2018-05-27T00:57:42.056Z,21.38
2018-05-27T00:58:42.077Z,21.38
2018-05-27T00:59:42.050Z,21.40
2018-05-27T01:00:42.112Z,21.43
2018-05-27T01:01:42.246Z,21.47
2018-05-27T01:02:42.101Z,21.42
2018-05-27T01:03:42.299Z,21.44
2018-05-27T01:04:42.153Z,21.29
2018-05-27T01:05:42.199Z,21.35
2018-05-27T01:06:42.201Z,21.32
2018-05-27T01:07:42.213Z,21.35
2018-05-27T01:08:42.224Z,21.25
2018-05-27T01:09:42.316Z,21.32
2018-05-27T01:10:42.290Z,21.31
2018-05-27T01:11:42.322Z,21.25
2018-05-27T01:12:42.320Z,21.27
2018-05-27T01:13:42.324Z,21.24
2018-05-27T01:14:42.432Z,21.28
2018-05-27T01:15:42.417Z,21.28
2018-05-27T01:16:42.366Z,21.21
2018-05-27T01:17:42.433Z,21.28
2018-05-27T01:18:42.769Z,21.24
2018-05-27T01:19:42.437Z,21.22
2018-05-27T01:20:42.523Z,21.21
2018-05-27T01:21:42.459Z,21.16
2018-05-27T01:22:42.479Z,21.13
2018-05-27T01:23:42.496Z,21.13
2018-05-27T01:24:42.763Z,21.09
2018-05-27T01:25:42.584Z,21.09
2018-05-27T01:26:42.588Z,21.09
2018-05-27T01:28:42.705Z,21.07
2018-05-27T01:29:42.709Z,21.03
2018-05-27T01:30:42.629Z,21.03
2018-05-27T01:31:42.758Z,20.99
2018-05-27T01:32:42.772Z,20.92
2018-05-27T01:33:42.735Z,21.01
2018-05-27T01:34:42.722Z,20.91
2018-05-27T01:35:42.738Z,20.95
2018-05-27T01:36:42.742Z,20.97
2018-05-27T01:37:42.791Z,20.94
2018-05-27T01:38:42.780Z,20.94
2018-05-27T01:39:42.795Z,20.94
2018-05-27T01:40:42.813Z,20.84
2018-05-27T01:41:42.840Z,20.88
2018-05-27T01:42:42.875Z,20.84
2018-05-27T01:43:42.929Z,20.87
2018-05-27T01:44:42.960Z,20.74
2018-05-27T01:45:42.931Z,20.91
2018-05-27T01:46:42.933Z,20.72
2018-05-27T01:47:42.995Z,20.76
2018-05-27T01:48:43.130Z,20.79
2018-05-27T01:49:43.369Z,20.76
2018-05-27T01:50:43.302Z,20.70
2018-05-27T01:51:43.240Z,20.64
2018-05-27T01:52:43.039Z,20.64
2018-05-27T01:53:43.061Z,20.64
2018-05-27T01:54:43.076Z,20.58
2018-05-27T01:55:43.174Z,20.55
2018-05-27T01:56:43.124Z,20.58
2018-05-27T01:57:43.159Z,20.52
2018-05-27T01:58:43.160Z,20.52
2018-05-27T01:59:43.200Z,20.54
2018-05-27T02:00:43.197Z,20.51
2018-05-27T02:01:43.224Z,20.55
2018-05-27T02:02:43.237Z,20.48
2018-05-27T02:03:43.449Z,20.42
2018-05-27T02:04:43.259Z,20.42
2018-05-27T02:05:43.282Z,20.41
2018-05-27T02:06:43.298Z,20.51
2018-05-27T02:07:43.511Z,20.52
2018-05-27T02:08:43.350Z,20.41
2018-05-27T02:09:43.350Z,20.52
2018-05-27T02:10:43.371Z,20.39
2018-05-27T02:11:43.491Z,20.50
2018-05-27T02:12:43.412Z,20.35
2018-05-27T02:13:43.423Z,20.52
2018-05-27T02:14:43.444Z,20.52
2018-05-27T02:15:43.461Z,20.51
2018-05-27T02:16:43.503Z,20.42
2018-05-27T02:17:43.499Z,20.47
2018-05-27T02:18:43.537Z,20.42
2018-05-27T02:19:43.536Z,20.42
2018-05-27T02:20:43.552Z,20.36
2018-05-27T02:21:43.579Z,20.35
2018-05-27T02:22:43.595Z,20.29
2018-05-27T02:23:43.611Z,20.29
2018-05-27T02:24:43.736Z,20.28
2018-05-27T02:25:43.653Z,20.29
2018-05-27T02:26:43.662Z,20.24
2018-05-27T02:27:44.091Z,20.16
2018-05-27T02:28:43.699Z,20.20
2018-05-27T02:29:43.717Z,20.23
2018-05-27T02:30:43.736Z,20.13
2018-05-27T02:31:43.759Z,20.10
2018-05-27T02:32:43.773Z,20.01
2018-05-27T02:33:43.790Z,20.01
2018-05-27T02:34:43.873Z,19.98
2018-05-27T02:35:43.830Z,19.99
2018-05-27T02:36:43.847Z,19.99
2018-05-27T02:37:43.863Z,19.96
2018-05-27T02:38:43.886Z,19.94
2018-05-27T02:39:43.903Z,19.92
2018-05-27T02:40:43.923Z,19.99
2018-05-27T02:41:43.939Z,19.96
2018-05-27T02:42:43.958Z,20.05
2018-05-27T02:43:44.193Z,20.13
2018-05-27T02:44:43.993Z,20.02
2018-05-27T02:45:44.012Z,20.06
2018-05-27T02:46:44.028Z,20.10
2018-05-27T02:47:44.047Z,20.03
2018-05-27T02:48:44.065Z,20.14
2018-05-27T02:49:44.082Z,20.17
2018-05-27T02:50:44.101Z,20.03
2018-05-27T02:51:44.123Z,20.05
2018-05-27T02:52:44.198Z,20.16
2018-05-27T02:53:44.158Z,20.01
2018-05-27T02:54:44.174Z,20.08
2018-05-27T02:55:44.192Z,20.05
2018-05-27T02:56:44.212Z,20.06
2018-05-27T02:57:44.244Z,20.08
2018-05-27T02:58:44.393Z,20.11
2018-05-27T02:59:44.473Z,19.94
2018-05-27T03:00:44.333Z,20.01
2018-05-27T03:01:44.302Z,19.87
2018-05-27T03:02:44.328Z,20.01
2018-05-27T03:03:44.340Z,19.91
2018-05-27T03:04:44.361Z,19.86
2018-05-27T03:05:44.373Z,19.84
2018-05-27T03:06:44.393Z,19.78
2018-05-27T03:07:44.409Z,19.77
2018-05-27T03:08:44.432Z,19.61
2018-05-27T03:09:44.451Z,19.62
2018-05-27T03:10:44.463Z,19.61
2018-05-27T03:11:44.486Z,19.66
2018-05-27T03:12:44.501Z,19.62
2018-05-27T03:13:44.526Z,19.56
2018-05-27T03:14:44.535Z,19.62
2018-05-27T03:15:44.554Z,19.61
2018-05-27T03:16:44.583Z,19.61
2018-05-27T03:17:44.591Z,19.73
2018-05-27T03:18:44.609Z,19.65
2018-05-27T03:19:44.628Z,19.66
2018-05-27T03:20:44.646Z,19.73
2018-05-27T03:21:44.662Z,19.76
2018-05-27T03:22:44.685Z,19.77
2018-05-27T03:23:44.699Z,19.76
2018-05-27T03:24:44.721Z,19.73
2018-05-27T03:25:44.736Z,19.69
2018-05-27T03:26:44.752Z,19.65
2018-05-27T03:27:44.774Z,19.68
2018-05-27T03:28:44.789Z,19.66
2018-05-27T03:29:44.806Z,19.71
2018-05-27T03:30:44.891Z,19.66
2018-05-27T03:31:44.845Z,19.69
2018-05-27T03:32:44.860Z,19.69
2018-05-27T03:33:44.903Z,19.65
2018-05-27T03:34:44.906Z,19.76
2018-05-27T03:35:44.918Z,19.69
2018-05-27T03:36:44.934Z,19.73
2018-05-27T03:37:44.955Z,19.69
2018-05-27T03:38:44.976Z,19.63
2018-05-27T03:39:44.992Z,19.63
2018-05-27T03:40:45.010Z,19.62
2018-05-27T03:41:45.031Z,19.65
2018-05-27T03:42:45.073Z,19.63
2018-05-27T03:43:45.062Z,19.73
2018-05-27T03:44:45.082Z,19.76
2018-05-27T03:45:45.101Z,19.66
2018-05-27T03:46:45.116Z,19.68
2018-05-27T03:47:45.136Z,19.69
2018-05-27T03:48:45.151Z,19.65
2018-05-27T03:49:45.178Z,19.65
2018-05-27T03:50:45.191Z,19.62
2018-05-27T03:51:45.205Z,19.55
2018-05-27T03:52:45.454Z,19.50
2018-05-27T03:53:45.245Z,19.51
2018-05-27T03:54:45.259Z,19.50
2018-05-27T03:55:45.278Z,19.50
2018-05-27T03:56:45.314Z,19.47
2018-05-27T03:57:45.317Z,19.47
2018-05-27T03:58:45.343Z,19.40
2018-05-27T03:59:45.352Z,19.44
2018-05-27T04:00:45.367Z,19.44
2018-05-27T04:01:45.387Z,19.47
2018-05-27T04:03:45.487Z,19.40
2018-05-27T04:04:45.440Z,19.46
2018-05-27T04:05:45.459Z,19.47
2018-05-27T04:06:45.489Z,19.48
2018-05-27T04:07:45.503Z,19.58
2018-05-27T04:08:45.516Z,19.54
2018-05-27T04:09:45.532Z,19.51
2018-05-27T04:10:45.547Z,19.55
2018-05-27T04:11:45.566Z,19.50
2018-05-27T04:12:45.587Z,19.48
2018-05-27T04:13:45.605Z,19.41
2018-05-27T04:14:45.622Z,19.40
2018-05-27T04:15:45.638Z,19.31
2018-05-27T04:16:45.683Z,19.31
2018-05-27T04:17:45.674Z,19.37
2018-05-27T04:18:45.698Z,19.33
2018-05-27T04:19:45.711Z,19.46
2018-05-27T04:20:45.731Z,19.39
2018-05-27T04:21:45.747Z,19.46
2018-05-27T04:22:45.764Z,19.41
2018-05-27T04:23:45.791Z,19.46
2018-05-27T04:24:45.801Z,19.41
2018-05-27T04:25:45.871Z,19.41
2018-05-27T04:26:45.839Z,19.32
2018-05-27T04:27:45.897Z,19.37
2018-05-27T04:28:45.884Z,19.39
2018-05-27T04:29:45.888Z,19.40
2018-05-27T04:30:45.909Z,19.41
2018-05-27T04:31:45.926Z,19.32
2018-05-27T04:32:45.949Z,19.51
2018-05-27T04:33:46.031Z,19.46
2018-05-27T04:34:45.978Z,19.46
2018-05-27T04:35:46.018Z,19.41
2018-05-27T04:36:46.218Z,19.41
2018-05-27T04:37:46.093Z,19.37
2018-05-27T04:38:46.052Z,19.46
2018-05-27T04:39:46.071Z,19.46
2018-05-27T04:40:46.088Z,19.47
2018-05-27T04:41:46.109Z,19.51
2018-05-27T04:42:46.124Z,19.39
2018-05-27T04:43:46.141Z,19.55
2018-05-27T04:44:46.167Z,19.55
2018-05-27T04:45:46.225Z,19.61
2018-05-27T04:46:46.208Z,19.48
2018-05-27T04:47:46.263Z,19.62
2018-05-27T04:48:46.231Z,19.62
2018-05-27T04:49:46.251Z,19.63
2018-05-27T04:50:46.285Z,19.77
2018-05-27T04:51:46.287Z,19.84
2018-05-27T04:52:46.303Z,19.80
2018-05-27T04:53:46.328Z,19.86
2018-05-27T04:54:46.341Z,19.80
2018-05-27T04:55:46.357Z,19.86
2018-05-27T04:56:46.381Z,19.86
2018-05-27T04:57:46.395Z,19.83
2018-05-27T04:58:46.410Z,19.87
2018-05-27T04:59:46.430Z,19.84
2018-05-27T05:00:46.465Z,19.92
2018-05-27T05:01:46.479Z,19.94
2018-05-27T05:02:46.482Z,19.98
2018-05-27T05:03:46.506Z,19.98
2018-05-27T05:04:46.525Z,19.92
2018-05-27T05:05:46.539Z,19.99
2018-05-27T05:06:46.555Z,19.98
2018-05-27T05:07:46.574Z,19.99
2018-05-27T05:08:46.597Z,20.03
2018-05-27T05:09:46.612Z,19.92
2018-05-27T05:10:46.658Z,20.06
2018-05-27T05:11:46.660Z,19.99
2018-05-27T05:12:46.662Z,20.14
2018-05-27T05:13:46.681Z,20.18
2018-05-27T05:14:46.702Z,20.14
2018-05-27T05:15:46.719Z,20.26
2018-05-27T05:16:46.736Z,20.24
2018-05-27T05:17:46.755Z,20.20
2018-05-27T05:18:46.771Z,20.17
2018-05-27T05:19:46.792Z,20.16
2018-05-27T05:20:46.806Z,20.14
2018-05-27T05:21:47.264Z,20.17
2018-05-27T05:22:46.847Z,20.33
2018-05-27T05:23:46.859Z,20.24
2018-05-27T05:24:46.878Z,20.32
2018-05-27T05:25:46.899Z,20.29
2018-05-27T05:26:46.918Z,20.31
2018-05-27T05:27:46.934Z,20.35
2018-05-27T05:28:46.961Z,20.29
2018-05-27T05:29:46.975Z,20.32
2018-05-27T05:30:47.080Z,20.41
2018-05-27T05:31:47.073Z,20.41
2018-05-27T05:32:47.039Z,20.47
2018-05-27T05:33:47.042Z,20.41
2018-05-27T05:34:47.064Z,20.36
2018-05-27T05:35:47.081Z,20.39
2018-05-27T05:36:47.099Z,20.36
2018-05-27T05:37:47.205Z,20.35
2018-05-27T05:38:47.143Z,20.41
2018-05-27T05:39:47.153Z,20.47
2018-05-27T05:40:47.173Z,20.41
2018-05-27T05:41:47.250Z,20.43
2018-05-27T05:42:47.205Z,20.57
2018-05-27T05:43:47.276Z,20.55
2018-05-27T05:44:47.374Z,20.69
2018-05-27T05:45:47.726Z,20.69
2018-05-27T05:46:47.281Z,20.70
2018-05-27T05:47:47.298Z,20.70
2018-05-27T05:48:47.317Z,20.62
2018-05-27T05:49:47.344Z,20.73
2018-05-27T05:50:47.355Z,20.69
2018-05-27T05:51:47.370Z,20.74
2018-05-27T05:52:47.443Z,20.73
2018-05-27T05:53:47.410Z,20.64
2018-05-27T05:54:47.430Z,20.57
2018-05-27T05:55:47.459Z,20.58
2018-05-27T05:56:47.463Z,20.59
2018-05-27T05:57:47.481Z,20.55
2018-05-27T05:58:47.552Z,20.58
2018-05-27T05:59:47.518Z,20.55
2018-05-27T06:00:47.536Z,20.67
2018-05-27T06:01:47.556Z,20.67
2018-05-27T06:02:47.577Z,20.76
2018-05-27T06:03:47.599Z,20.73
2018-05-27T06:04:47.651Z,20.76
2018-05-27T06:05:47.628Z,20.73
2018-05-27T06:06:47.647Z,20.84
2018-05-27T06:07:47.665Z,20.79
2018-05-27T06:08:47.683Z,20.82
2018-05-27T06:09:47.701Z,20.91
2018-05-27T06:10:47.722Z,20.97
2018-05-27T06:11:47.741Z,20.91
2018-05-27T06:12:47.759Z,20.97
2018-05-27T06:13:47.783Z,20.97
2018-05-27T06:14:47.794Z,21.07
2018-05-27T06:15:47.812Z,21.12
2018-05-27T06:16:47.864Z,21.21
2018-05-27T06:17:47.850Z,21.27
2018-05-27T06:18:47.918Z,21.28
2018-05-27T06:19:48.046Z,21.28
2018-05-27T06:20:47.905Z,21.27
2018-05-27T06:21:47.924Z,21.21
2018-05-27T06:22:47.942Z,21.37
2018-05-27T06:23:47.996Z,21.35
2018-05-27T06:24:47.980Z,21.38
2018-05-27T06:25:48.075Z,21.34
2018-05-27T06:26:48.016Z,21.44
2018-05-27T06:27:48.042Z,21.37
2018-05-27T06:28:48.051Z,21.42
2018-05-27T06:29:48.069Z,21.38
2018-05-27T06:30:48.090Z,21.47
2018-05-27T06:31:48.109Z,21.52
2018-05-27T06:32:48.129Z,21.53
2018-05-27T06:33:48.144Z,21.49
2018-05-27T06:34:48.165Z,21.64
2018-05-27T06:35:48.185Z,21.54
2018-05-27T06:36:48.271Z,21.54
2018-05-27T06:37:48.241Z,21.61
2018-05-27T06:38:48.338Z,21.59
2018-05-27T06:39:48.260Z,21.67
2018-05-27T06:40:48.273Z,21.65
2018-05-27T06:41:48.296Z,21.61
2018-05-27T06:42:48.325Z,21.64
2018-05-27T06:43:48.333Z,21.67
2018-05-27T06:44:48.519Z,21.68
2018-05-27T06:45:48.373Z,21.72
2018-05-27T06:46:48.390Z,21.68
2018-05-27T06:47:48.405Z,21.68
2018-05-27T06:48:48.441Z,21.75
2018-05-27T06:49:48.443Z,21.72
2018-05-27T06:50:48.894Z,21.80
2018-05-27T06:51:48.480Z,21.77
2018-05-27T06:52:48.502Z,21.82
2018-05-27T06:54:48.802Z,21.96
2018-05-27T06:55:49.094Z,21.99
2018-05-27T06:56:48.716Z,21.98
2018-05-27T06:58:48.609Z,22.05
2018-05-27T06:59:48.638Z,22.03
2018-05-27T07:00:48.648Z,22.17
2018-05-27T07:01:48.675Z,22.09
2018-05-27T07:02:48.687Z,22.14
2018-05-27T07:03:48.704Z,22.12
2018-05-27T07:04:48.758Z,22.20
2018-05-27T07:05:48.741Z,22.37
2018-05-27T07:06:48.762Z,22.35
2018-05-27T07:07:48.778Z,22.36
2018-05-27T07:08:48.805Z,22.37
2018-05-27T07:09:48.815Z,22.37
2018-05-27T07:10:48.841Z,22.43
2018-05-27T07:11:49.036Z,22.45
2018-05-27T07:12:48.893Z,22.55
2018-05-27T07:13:48.912Z,22.51
2018-05-27T07:14:48.922Z,22.55
2018-05-27T07:15:48.968Z,22.57
2018-05-27T07:16:48.951Z,22.55
2018-05-27T07:17:48.969Z,22.47
2018-05-27T07:18:48.986Z,22.52
2018-05-27T07:19:49.007Z,22.57
2018-05-27T07:20:49.044Z,22.68
2018-05-27T07:21:49.053Z,22.62
2018-05-27T07:22:49.062Z,22.68
2018-05-27T07:23:49.093Z,22.82
2018-05-27T07:24:49.108Z,22.76
2018-05-27T07:25:49.123Z,22.83
2018-05-27T07:26:49.301Z,22.88
2018-05-27T07:27:49.220Z,23.00
2018-05-27T07:28:49.350Z,22.94
2018-05-27T07:29:49.200Z,23.05
2018-05-27T07:30:49.222Z,23.01
2018-05-27T07:31:49.232Z,23.04
2018-05-27T07:32:49.252Z,23.09
2018-05-27T07:33:49.269Z,23.04
2018-05-27T07:34:49.293Z,23.01
2018-05-27T07:36:49.331Z,23.09
2018-05-27T07:37:49.348Z,23.13
2018-05-27T07:38:49.359Z,23.15
2018-05-27T07:39:49.379Z,23.16
2018-05-27T07:40:49.396Z,23.23
2018-05-27T07:41:49.418Z,23.23
2018-05-27T07:42:49.436Z,23.17
2018-05-27T07:43:49.456Z,23.23
2018-05-27T07:44:49.481Z,23.28
2018-05-27T07:45:49.493Z,23.13
2018-05-27T07:46:49.522Z,23.15
2018-05-27T07:47:49.534Z,23.17
2018-05-27T07:48:49.558Z,23.23
2018-05-27T07:49:49.576Z,23.32
2018-05-27T07:50:49.591Z,23.27
2018-05-27T07:51:49.613Z,23.28
2018-05-27T07:52:49.630Z,23.43
2018-05-27T07:53:49.653Z,23.42
2018-05-27T07:54:49.669Z,23.47
2018-05-27T07:55:49.689Z,23.40
2018-05-27T07:56:49.707Z,23.54
2018-05-27T07:57:49.725Z,23.57
2018-05-27T07:58:49.759Z,23.54
2018-05-27T07:59:49.767Z,23.57
2018-05-27T08:00:50.352Z,23.60
2018-05-27T08:01:50.091Z,23.63
2018-05-27T08:02:49.843Z,23.66
2018-05-27T08:03:49.844Z,23.80
2018-05-27T08:04:49.868Z,23.80
2018-05-27T08:05:49.892Z,23.85
2018-05-27T08:06:49.900Z,23.93
2018-05-27T08:07:49.930Z,23.90
2018-05-27T08:08:49.940Z,23.97
2018-05-27T08:09:49.975Z,24.05
2018-05-27T08:10:49.987Z,24.12
2018-05-27T08:11:50.308Z,24.18
2018-05-27T08:12:50.016Z,24.13
2018-05-27T08:13:50.051Z,24.30
2018-05-27T08:14:50.059Z,24.24
2018-05-27T08:15:50.079Z,24.27
2018-05-27T08:16:50.093Z,24.34
2018-05-27T08:17:50.115Z,24.22
2018-05-27T08:18:50.145Z,24.20
2018-05-27T08:19:50.195Z,24.22
2018-05-27T08:20:50.174Z,24.22
2018-05-27T08:21:50.446Z,24.31
2018-05-27T08:22:50.212Z,24.27
2018-05-27T08:23:50.232Z,24.28
2018-05-27T08:24:50.316Z,24.34
2018-05-27T08:25:50.271Z,24.40
2018-05-27T08:26:50.292Z,24.42
2018-05-27T08:27:50.313Z,24.50
2018-05-27T08:28:50.334Z,24.55
2018-05-27T08:29:50.349Z,24.52
2018-05-27T08:30:50.579Z,24.64
2018-05-27T08:31:50.401Z,24.69
2018-05-27T08:32:50.418Z,24.60
2018-05-27T08:34:50.602Z,24.78
2018-05-27T08:35:51.203Z,24.64
2018-05-27T08:36:50.498Z,24.83
2018-05-27T08:37:50.513Z,24.87
2018-05-27T08:38:50.530Z,24.88
2018-05-27T08:39:50.550Z,24.98
2018-05-27T08:40:50.569Z,25.08
2018-05-27T08:41:50.608Z,24.98
2018-05-27T08:42:50.609Z,25.00
2018-05-27T08:43:50.628Z,24.98
2018-05-27T08:44:50.651Z,25.02
2018-05-27T08:45:50.685Z,24.95
2018-05-27T08:46:50.699Z,25.00
2018-05-27T08:47:50.711Z,25.13
2018-05-27T08:48:50.778Z,25.17
2018-05-27T08:49:50.749Z,25.20
2018-05-27T08:50:50.786Z,25.18
2018-05-27T08:51:50.789Z,25.21
2018-05-27T08:52:50.808Z,25.24
2018-05-27T08:53:50.831Z,25.32
2018-05-27T08:54:50.847Z,25.33
2018-05-27T08:55:50.889Z,25.32
2018-05-27T08:56:50.887Z,25.36
2018-05-27T08:57:50.939Z,25.36
2018-05-27T08:58:50.929Z,25.39
2018-05-27T08:59:51.009Z,25.45
2018-05-27T09:00:50.986Z,25.40
2018-05-27T09:01:50.988Z,25.51
2018-05-27T09:02:51.008Z,25.45
2018-05-27T09:03:51.037Z,25.42
2018-05-27T09:04:51.049Z,25.43
2018-05-27T09:05:51.078Z,25.40
2018-05-27T09:06:51.139Z,25.47
2018-05-27T09:07:51.387Z,25.57
2018-05-27T09:08:51.147Z,25.58
2018-05-27T09:09:51.148Z,25.62
2018-05-27T09:10:51.171Z,25.58
2018-05-27T09:11:51.197Z,25.65
2018-05-27T09:12:51.211Z,25.72
2018-05-27T09:13:51.236Z,25.82
2018-05-27T09:14:51.258Z,25.87
2018-05-27T09:15:51.325Z,25.79
2018-05-27T09:16:51.545Z,25.92
2018-05-27T09:17:51.312Z,26.07
2018-05-27T09:18:51.361Z,25.98
2018-05-27T09:19:51.356Z,26.07
2018-05-27T09:20:51.462Z,25.95
2018-05-27T09:21:51.482Z,26.02
2018-05-27T09:22:51.415Z,25.94
2018-05-27T09:23:51.435Z,26.06
2018-05-27T09:24:51.492Z,26.09
2018-05-27T09:25:52.442Z,26.15
2018-05-27T09:26:51.502Z,26.30
2018-05-27T09:27:51.516Z,26.33
2018-05-27T09:28:51.540Z,26.36
2018-05-27T09:29:51.593Z,26.47
2018-05-27T09:30:51.634Z,26.39
2018-05-27T09:31:51.605Z,26.21
2018-05-27T09:32:51.619Z,26.20
2018-05-27T09:33:51.659Z,26.21
2018-05-27T09:34:51.662Z,26.29
2018-05-27T09:35:51.687Z,26.40
2018-05-27T09:36:51.704Z,26.48
2018-05-27T09:37:51.724Z,26.52
2018-05-27T09:38:51.750Z,26.45
2018-05-27T09:41:51.845Z,26.51
2018-05-27T09:42:51.849Z,26.48
2018-05-27T09:43:51.886Z,26.45
2018-05-27T09:44:51.870Z,26.60
2018-05-27T09:45:51.888Z,26.63
2018-05-27T09:46:51.915Z,26.51
2018-05-27T09:47:51.934Z,26.35
2018-05-27T09:48:52.045Z,26.44
2018-05-27T09:49:52.130Z,26.50
2018-05-27T09:50:51.993Z,26.62
2018-05-27T09:51:52.014Z,26.77
2018-05-27T09:52:52.044Z,26.82
2018-05-27T09:53:52.056Z,26.85
2018-05-27T09:54:52.110Z,26.94
2018-05-27T09:55:52.099Z,26.95
2018-05-27T09:56:52.192Z,26.87
2018-05-27T09:57:52.154Z,26.84
2018-05-27T09:58:52.216Z,26.85
2018-05-27T09:59:52.189Z,26.85
2018-05-27T10:00:52.204Z,26.89
2018-05-27T10:01:52.230Z,26.81
2018-05-27T10:02:52.271Z,26.82
2018-05-27T10:03:52.278Z,26.82
2018-05-27T10:04:52.347Z,26.89
2018-05-27T10:05:52.895Z,26.85
2018-05-27T10:06:52.334Z,26.92
2018-05-27T10:07:52.352Z,27.10
2018-05-27T10:08:52.387Z,27.14
2018-05-27T10:09:52.393Z,27.14
2018-05-27T10:10:52.532Z,27.13
2018-05-27T10:11:52.440Z,27.31
2018-05-27T10:12:52.459Z,27.34
2018-05-27T10:13:52.475Z,27.44
2018-05-27T10:14:52.502Z,27.40
2018-05-27T10:15:52.521Z,27.37
2018-05-27T10:16:52.549Z,27.46
2018-05-27T10:18:52.733Z,27.36
2018-05-27T10:19:52.674Z,27.24
2018-05-27T10:20:52.623Z,27.39
2018-05-27T10:21:52.648Z,27.39
2018-05-27T10:22:52.666Z,27.29
2018-05-27T10:23:52.687Z,27.28
2018-05-27T10:24:52.709Z,27.39
2018-05-27T10:25:52.797Z,27.43
2018-05-27T10:26:52.752Z,27.39
2018-05-27T10:27:52.773Z,27.50
2018-05-27T10:28:52.817Z,27.46
2018-05-27T10:29:52.814Z,27.47
2018-05-27T10:30:52.857Z,27.43
2018-05-27T10:31:52.859Z,27.31
2018-05-27T10:32:52.893Z,27.40
2018-05-27T10:33:52.938Z,27.27
2018-05-27T10:34:52.924Z,27.36
2018-05-27T10:35:52.948Z,27.47
2018-05-27T10:36:52.968Z,27.47
2018-05-27T10:37:52.986Z,27.47
2018-05-27T10:38:53.011Z,27.65
2018-05-27T10:39:53.038Z,27.69
2018-05-27T10:40:53.076Z,27.62
2018-05-27T10:41:53.080Z,27.74
2018-05-27T10:42:53.097Z,27.82
2018-05-27T10:43:53.120Z,27.84
2018-05-27T10:44:53.166Z,27.84
2018-05-27T10:45:53.160Z,27.75
2018-05-27T10:46:53.203Z,27.84
2018-05-27T10:47:53.213Z,27.57
2018-05-27T10:48:53.259Z,27.49
2018-05-27T10:49:53.247Z,27.41
2018-05-27T10:50:53.275Z,27.50
2018-05-27T10:51:53.338Z,27.60
2018-05-27T10:52:53.694Z,27.75
2018-05-27T10:53:53.337Z,27.82
2018-05-27T10:54:53.357Z,27.94
2018-05-27T10:55:53.381Z,28.09
2018-05-27T10:56:53.400Z,28.18
2018-05-27T10:57:53.420Z,28.15
2018-05-27T10:58:53.441Z,27.92
2018-05-27T10:59:53.524Z,27.84
2018-05-27T11:00:53.487Z,27.84
2018-05-27T11:01:53.519Z,27.77
2018-05-27T11:02:53.536Z,27.82
2018-05-27T11:03:53.548Z,27.88
2018-05-27T11:04:53.597Z,27.96
2018-05-27T11:05:53.636Z,27.94
2018-05-27T11:06:53.615Z,28.04
2018-05-27T11:07:53.638Z,28.07
2018-05-27T11:08:53.673Z,28.02
2018-05-27T11:09:53.684Z,27.93
2018-05-27T11:10:53.815Z,27.77
2018-05-27T11:11:53.728Z,27.84
2018-05-27T11:12:53.777Z,28.11
2018-05-27T11:13:53.772Z,28.18
2018-05-27T11:14:53.799Z,28.33
2018-05-27T11:15:53.816Z,28.44
2018-05-27T11:16:53.859Z,28.48
2018-05-27T11:17:53.987Z,28.37
2018-05-27T11:18:53.912Z,28.22
2018-05-27T11:19:53.899Z,28.37
2018-05-27T11:20:53.926Z,28.36
2018-05-27T11:21:53.941Z,28.48
2018-05-27T11:22:54.078Z,28.49
2018-05-27T11:23:54.388Z,28.56
2018-05-27T11:24:54.041Z,28.56
2018-05-27T11:25:54.081Z,28.62
2018-05-27T11:26:54.051Z,28.71
2018-05-27T11:27:54.086Z,28.74
2018-05-27T11:28:54.102Z,28.86
2018-05-27T11:29:54.164Z,28.90
2018-05-27T11:30:54.150Z,28.89
2018-05-27T11:31:54.161Z,29.04
2018-05-27T11:32:54.187Z,28.92
2018-05-27T11:33:54.204Z,28.86
2018-05-27T11:34:54.230Z,28.78
2018-05-27T11:35:54.250Z,28.74
2018-05-27T11:36:54.328Z,28.78
2018-05-27T11:37:54.300Z,28.68
2018-05-27T11:38:54.347Z,28.66
2018-05-27T11:39:54.440Z,28.77
2018-05-27T11:40:54.364Z,28.66
2018-05-27T11:41:54.396Z,28.66
2018-05-27T11:42:54.408Z,28.86
2018-05-27T11:43:54.444Z,29.05
2018-05-27T11:44:54.460Z,29.16
2018-05-27T11:45:54.484Z,29.30
2018-05-27T11:46:54.499Z,29.33
2018-05-27T11:47:54.520Z,29.37
2018-05-27T11:48:54.546Z,29.37
2018-05-27T11:49:54.567Z,29.33
2018-05-27T11:50:54.609Z,29.39
2018-05-27T11:51:54.613Z,29.27
2018-05-27T11:52:54.638Z,29.45
2018-05-27T11:53:54.669Z,29.14
2018-05-27T11:54:54.682Z,28.89
2018-05-27T11:55:54.711Z,28.81
2018-05-27T11:56:54.877Z,28.85
2018-05-27T11:57:54.802Z,29.09
2018-05-27T11:58:54.866Z,29.23
2018-05-27T11:59:54.844Z,29.28
2018-05-27T12:00:54.908Z,29.42
2018-05-27T12:01:54.840Z,29.43
2018-05-27T12:02:54.883Z,29.48
2018-05-27T12:03:54.886Z,29.41
2018-05-27T12:04:54.914Z,29.45
2018-05-27T12:05:54.966Z,29.58
2018-05-27T12:06:54.955Z,29.67
2018-05-27T12:07:54.996Z,29.78
2018-05-27T12:08:55.112Z,29.71
2018-05-27T12:09:55.028Z,29.73
2018-05-27T12:10:55.124Z,29.85
2018-05-27T12:11:55.147Z,29.89
2018-05-27T12:12:55.105Z,29.78
2018-05-27T12:13:55.126Z,29.78
2018-05-27T12:14:55.160Z,29.94
2018-05-27T12:15:55.182Z,30.02
2018-05-27T12:16:55.189Z,30.07
2018-05-27T12:17:55.214Z,30.04
2018-05-27T12:18:55.259Z,30.07
2018-05-27T12:19:55.267Z,30.02
2018-05-27T12:20:55.299Z,29.80
2018-05-27T12:21:55.497Z,29.76
2018-05-27T12:22:55.331Z,29.76
2018-05-27T12:23:55.352Z,29.86
2018-05-27T12:24:55.378Z,29.94
2018-05-27T12:25:55.398Z,29.83
2018-05-27T12:26:55.439Z,29.63
2018-05-27T12:27:55.447Z,29.49
2018-05-27T12:28:55.534Z,29.33
2018-05-27T12:29:55.652Z,29.45
2018-05-27T12:30:55.621Z,29.21
2018-05-27T12:31:55.771Z,29.33
2018-05-27T12:32:55.643Z,29.41
2018-05-27T12:33:55.603Z,29.51
2018-05-27T12:34:55.612Z,29.71
2018-05-27T12:35:55.842Z,29.78
2018-05-27T12:36:55.713Z,30.00
2018-05-27T12:37:55.680Z,30.04
2018-05-27T12:38:55.705Z,29.89
2018-05-27T12:39:55.738Z,29.87
2018-05-27T12:40:55.781Z,29.90
2018-05-27T12:41:55.792Z,29.89
2018-05-27T12:42:55.803Z,29.82
2018-05-27T12:43:55.825Z,30.02
2018-05-27T12:44:55.858Z,30.15
2018-05-27T12:45:55.872Z,30.20
2018-05-27T12:46:55.897Z,30.24
2018-05-27T12:47:55.921Z,30.16
2018-05-27T12:48:55.946Z,30.11
2018-05-27T12:49:55.972Z,30.05
2018-05-27T12:50:56.019Z,29.76
2018-05-27T12:51:56.024Z,29.74
2018-05-27T12:52:56.049Z,29.63
2018-05-27T12:53:56.081Z,29.60
2018-05-27T12:54:56.092Z,29.58
2018-05-27T12:55:56.135Z,29.64
2018-05-27T12:56:56.223Z,29.71
2018-05-27T12:57:56.334Z,29.60
2018-05-27T12:58:56.400Z,29.58
2018-05-27T12:59:56.295Z,29.64
2018-05-27T13:00:56.238Z,29.89
2018-05-27T13:02:56.325Z,30.08
2018-05-27T13:03:56.317Z,30.72
2018-05-27T13:05:56.495Z,31.62